DW9351 Weather Reports


Display with metric or nautical units.
time (UTC)temp
F
wind
direction
speed
MPH
gust
MPH
rain 1hr
in
rain 24hr
in
rain mn
in
humidity
%
barometer
mb
20220702210010 -90 191 0.0 0.0 0.00 0.17 0.15 1017.0
20220702203010 -90 233 0.0 0.0 0.00 0.17 0.15 1016.9
20220702200011 -90 188 2.0 1.0 0.00 0.17 0.15 1017.0
20220702193011 -90 289 3.0 0.0 0.00 0.17 0.15 1016.9
20220702190010 -90 198 2.0 1.0 0.00 0.17 0.15 1016.7
20220702183010 -90 275 0.0 1.0 0.00 0.17 0.15 1016.8
20220702180010 -90 159 2.0 1.0 0.00 0.17 0.15 1016.6
20220702173011 -90 17 0.0 1.0 0.01 0.17 0.15 1016.4
20220702170011 -90 318 2.0 1.0 0.01 0.17 0.15 1016.4
20220702163010 -90 173 0.0 0.0 0.01 0.16 0.14 1016.6
20220702160010 -90 177 0.0 0.0 0.01 0.16 0.14 1016.3
20220702153011 -90 176 0.0 0.0 0.01 0.15 0.13 1016.2
20220702150010 -90 26 0.0 0.0 0.02 0.15 0.13 1016.0
20220702143011 -90 154 0.0 0.0 0.02 0.14 0.12 1015.9
20220702140011 -90 183 1.0 0.0 0.02 0.13 0.11 1015.8
20220702133011 -90 186 0.0 0.0 0.02 0.12 0.10 1015.8
20220702130010 -90 27 0.0 0.0 0.02 0.11 0.09 1015.8
20220702123011 -90 198 0.0 0.0 0.02 0.11 0.08 1015.6
20220702120011 -90 344 0.0 0.0 0.02 0.10 0.07 1015.5
20220702113011 -90 194 0.0 0.0 0.02 0.09 0.06 1015.5
20220702110011 -90 214 2.0 1.0 0.02 0.08 0.05 1015.5
20220702103011 -90 98 0.0 0.0 0.01 0.08 0.04 1015.6
20220702100011 -90 9 0.0 0.0 0.01 0.07 0.03 1015.7
20220702093011 -90 9 0.0 0.0 0.02 0.08 0.03 1015.6
20220702090011 -90 9 0.0 0.0 0.01 0.07 0.02 1015.8
20220702083012 -90 5 0.0 0.0 0.00 0.06 0.01 1016.0
20220702080012 -90 28 0.0 0.0 0.01 0.06 0.01 1016.0
20220702073012 -90 60 0.0 0.0 0.01 0.06 0.01 1016.1
20220702070012 -90 59 0.0 0.0 0.01 0.05 0.00 1016.0
20220702063012 -90 24 0.0 0.0 0.01 0.06 0.05 1016.2
20220702060012 -90 5 0.0 0.0 0.01 0.05 0.04 1016.4
20220702053012 -90 5 0.0 0.0 0.01 0.05 0.04 1016.5
20220702050012 -90 16 0.0 0.0 0.00 0.04 0.03 1016.3
20220702043012 -90 5 0.0 0.0 0.00 0.04 0.03 1016.0
20220702040012 -90 355 0.0 0.0 0.00 0.04 0.03 1015.8
20220702033012 -90 342 0.0 0.0 0.00 0.04 0.03 1015.8
20220702030012 -90 355 0.0 1.0 0.00 0.04 0.03 1015.8
20220702023012 -90 355 2.0 0.0 0.00 0.04 0.03 1015.8
20220702020012 -90 43 0.0 0.0 0.00 0.04 0.03 1015.7
20220702013012 -90 290 2.0 1.0 0.00 0.04 0.03 1015.9
20220702010012 -90 335 0.0 0.0 0.00 0.04 0.03 1016.1
20220702003012 -90 285 2.0 1.0 0.00 0.04 0.03 1016.2
20220702000012 -90 336 0.0 1.0 0.00 0.04 0.03 1016.3
20220701233012 -90 217 2.0 1.0 0.00 0.04 0.03 1016.5
20220701230012 -90 262 0.0 1.0 0.00 0.04 0.03 1016.9
20220701223012 -90 265 1.0 1.0 0.00 0.04 0.03 1017.0
20220701220013 -90 231 4.0 1.0 0.00 0.04 0.03 1017.1
20220701213012 -90 223 0.0 1.0 0.00 0.04 0.03 1017.3